Boones Mill, VA

11:26 AM EST on February 09, 2016 (GMT -0500)
Roanoke Regional-Woodrum | | Change Station
CLOSE
Current Station
Airport
Location: Roanoke,
Elevation: 1175 ft
Nearby Weather Stations

Elev 1175 ft 37.32 °N, 79.97 °W | Updated 32 minutes ago

Overcast
Overcast
32 °F
Feels Like 20 °F
N
21
Wind Variable Wind from WNW
Gusts 26 mph

Today
High -- | Low -- °F
--% Chance of Precip.
Yesterday
High -- | Low -- °F
Precip. -- in
Pressure 29.68 in
Visibility 10.0 miles
Clouds Scattered Clouds 4200 ft
Overcast 7500 ft
Windchill 20 °F
Dew Point 18 °F
Humidity 56%
Rainfall 0.00 in
Snow Depth Not available.
7:15 AM 5:52 PM
New Moon, 2% visible
METAR KROA 091554Z 30018G23KT 10SM SCT042 OVC075 00/M08 A2965 RMK AO2 SLP049 T00001078
Pressure 29.68 in
Visibility 10.0 miles
Clouds Scattered Clouds 4200 ft
Overcast 7500 ft
Windchill 20 °F
Dew Point 18 °F
Humidity 56%
Rainfall 0.00 in
Snow Depth Not available.
7:15 AM 5:52 PM
New Moon, 2% visible
METAR KROA 091554Z 30018G23KT 10SM SCT042 OVC075 00/M08 A2965 RMK AO2 SLP049 T00001078

10-Day Weather Forecast

Almanac

Astronomy

Feb. 09, 2016 Rise Set
Actual Time
Civil Twilight
Nautical Twilight
Astronomical Twilight
Moon
Length of Visible Light
Length of Day
Tomorrow will be .
, % of the Moon is Illuminated

Today's Extremes

State Highs State Lows

Community

WunderPhotos

Upload Photos

1,891,633 photos uploaded!

WunderBlog® & News

Nearby

Air Quality

  Air Quality AQ Index Pollutant
Not available.

Snow Depth

Station Depth Elevation

Earthquake Activity

City Distance Mag. Time & Date
Minimum magnitude displayed is 2.5.

Coastal Water Temperatures

Place Temperature

Stations

Nearby Weather Stations

Station Location Temp. Windchill Dew Point Humidity Wind Precip. Elev Updated Type
                   

Watches & Warnings

There are currently no watches in effect.